Time;durP1;ratioP1;P1;durP2;ratioP2;P2;SDS_P1;SDS_P2;PMS_P1;PMS_P2;Temp;Humidity;BMP_temperature;BMP_pressure;BME280_temperature;BME280_humidity;BME280_pressure;Samples;Min_cycle;Max_cycle;Signal;HPM_P1;HPM_P2
2022/06/07 00:01:12;;;;;;;15.07;8.77;;;12.30;99.90;;;;;;5054914;28;20067;-72
2022/06/07 00:03:38;;;;;;;13.68;8.60;;;12.30;99.90;;;;;;5055349;28;20402;-72
2022/06/07 00:06:03;;;;;;;11.63;8.50;;;12.30;99.90;;;;;;5054895;28;20044;-72
2022/06/07 00:08:31;;;;;;;17.45;9.20;;;12.20;99.90;;;;;;5055231;28;20095;-71
2022/06/07 00:10:57;;;;;;;12.43;8.60;;;12.20;99.90;;;;;;5055034;28;20406;-71
2022/06/07 00:13:22;;;;;;;16.92;8.85;;;12.20;99.90;;;;;;5055203;28;21073;-72
2022/06/07 00:15:48;;;;;;;12.07;8.23;;;12.20;99.90;;;;;;5054718;28;20044;-72
2022/06/07 00:18:14;;;;;;;14.10;8.63;;;12.20;99.90;;;;;;5054961;28;20041;-72
2022/06/07 00:20:41;;;;;;;12.48;8.65;;;12.30;99.90;;;;;;5054869;28;20477;-72
2022/06/07 00:23:10;;;;;;;12.60;9.57;;;12.20;99.90;;;;;;5054898;28;20047;-72
2022/06/07 00:25:36;;;;;;;13.00;9.60;;;12.30;99.90;;;;;;5071276;28;20045;-72
2022/06/07 00:28:03;;;;;;;12.32;8.55;;;12.30;99.90;;;;;;5054533;28;20036;-71
2022/06/07 00:30:30;;;;;;;14.57;9.57;;;12.30;99.90;;;;;;5054139;28;20250;-71
2022/06/07 00:32:56;;;;;;;11.00;9.13;;;12.40;99.90;;;;;;5054751;28;20448;-71
2022/06/07 00:35:21;;;;;;;11.60;9.52;;;12.30;99.90;;;;;;5054321;28;20045;-72
2022/06/07 00:37:48;;;;;;;13.18;9.30;;;12.30;99.90;;;;;;5054497;28;20044;-72
2022/06/07 00:40:14;;;;;;;13.15;9.40;;;12.30;99.90;;;;;;5037708;28;20081;-72
2022/06/07 00:42:41;;;;;;;11.77;9.93;;;12.40;99.90;;;;;;5054218;28;20063;-72
2022/06/07 00:45:11;;;;;;;13.85;9.82;;;12.40;99.90;;;;;;5054350;28;20091;-72
2022/06/07 00:47:36;;;;;;;15.02;10.80;;;12.40;99.90;;;;;;5054334;28;20086;-72
2022/06/07 00:50:05;;;;;;;15.13;10.45;;;12.40;99.90;;;;;;5054158;28;20146;-72
2022/06/07 00:52:33;;;;;;;12.73;11.20;;;12.40;99.90;;;;;;5037427;28;20044;-72
2022/06/07 00:55:00;;;;;;;13.88;10.43;;;12.40;99.90;;;;;;5053927;28;20096;-72
2022/06/07 00:57:26;;;;;;;13.23;11.73;;;12.40;99.90;;;;;;5053747;28;20525;-72
2022/06/07 00:59:52;;;;;;;16.90;12.23;;;12.50;99.90;;;;;;5037534;28;20044;-72
2022/06/07 01:02:19;;;;;;;16.50;12.77;;;12.40;99.90;;;;;;5054035;28;20471;-72
2022/06/07 01:04:45;;;;;;;16.33;12.45;;;12.40;99.90;;;;;;5037354;28;20045;-72
2022/06/07 01:12:39;;;;;;;20.00;14.15;;;12.50;99.90;;;;;;5053865;28;20048;-72
2022/06/07 01:15:07;;;;;;;17.00;14.02;;;12.50;99.90;;;;;;5037328;28;20490;-72
2022/06/07 01:17:33;;;;;;;15.93;13.50;;;12.50;99.90;;;;;;5036931;28;20079;-72
2022/06/07 01:19:58;;;;;;;18.58;14.18;;;12.50;99.90;;;;;;5053377;28;20064;-72
2022/06/07 01:22:24;;;;;;;14.45;12.68;;;12.50;99.90;;;;;;5053544;28;20068;-72
2022/06/07 01:24:50;;;;;;;18.40;14.57;;;12.60;99.90;;;;;;5036928;28;20037;-72
2022/06/07 01:27:16;;;;;;;16.25;13.57;;;12.50;99.90;;;;;;5053807;28;20033;-72
2022/06/07 01:29:42;;;;;;;16.25;13.40;;;12.60;99.90;;;;;;5036762;28;20505;-72
2022/06/07 01:32:08;;;;;;;18.33;14.27;;;12.60;99.90;;;;;;5053287;28;20547;-72
2022/06/07 01:34:37;;;;;;;16.80;14.07;;;12.60;99.90;;;;;;5036662;28;20028;-72
2022/06/07 01:37:03;;;;;;;17.95;13.95;;;12.60;99.90;;;;;;5053415;28;20390;-72
2022/06/07 01:42:14;;;;;;;15.07;12.55;;;12.60;99.90;;;;;;5052601;28;20036;-72
2022/06/07 01:44:42;;;;;;;16.42;12.40;;;12.60;99.90;;;;;;5053368;28;20047;-72
2022/06/07 01:47:10;;;;;;;17.15;12.90;;;12.60;99.90;;;;;;5052867;28;20047;-72
2022/06/07 01:49:37;;;;;;;18.10;12.93;;;12.60;99.90;;;;;;5053036;28;20493;-72
2022/06/07 01:52:04;;;;;;;15.50;11.88;;;12.70;99.90;;;;;;5036194;28;20504;-72
2022/06/07 01:54:30;;;;;;;13.02;11.65;;;12.70;99.90;;;;;;5036193;28;20098;-72
2022/06/07 01:56:56;;;;;;;17.17;13.75;;;12.80;99.90;;;;;;5052879;28;20067;-72
2022/06/07 01:59:21;;;;;;;15.73;12.48;;;12.70;99.90;;;;;;5052741;28;20055;-72
2022/06/07 02:01:48;;;;;;;13.27;11.95;;;12.70;99.90;;;;;;5053052;28;20046;-72
2022/06/07 02:04:13;;;;;;;13.93;11.95;;;12.70;99.90;;;;;;5036129;28;20036;-72
2022/06/07 02:06:39;;;;;;;15.60;12.80;;;12.70;99.90;;;;;;5052884;28;20040;-73
2022/06/07 02:09:06;;;;;;;15.77;12.05;;;12.70;99.90;;;;;;5052630;28;20044;-73
2022/06/07 02:11:33;;;;;;;14.07;11.57;;;12.70;99.90;;;;;;5036104;28;20090;-72
2022/06/07 02:13:59;;;;;;;13.35;12.05;;;12.70;99.90;;;;;;5035898;28;20061;-72
2022/06/07 02:16:25;;;;;;;14.38;11.43;;;12.80;99.90;;;;;;5052601;28;20049;-73
2022/06/07 02:18:51;;;;;;;14.48;10.57;;;12.80;99.90;;;;;;5052379;28;20048;-72
2022/06/07 02:21:18;;;;;;;13.07;11.32;;;12.80;99.90;;;;;;5052546;28;20048;-72
2022/06/07 02:23:44;;;;;;;13.65;10.80;;;12.80;99.90;;;;;;5052423;28;20047;-72
2022/06/07 02:26:21;;;;;;;15.90;11.82;;;12.70;99.90;;;;;;5052508;28;20036;-71
2022/06/07 02:28:52;;;;;;;12.52;10.48;;;12.70;99.90;;;;;;5052368;28;20044;-72
2022/06/07 02:31:19;;;;;;;12.33;10.70;;;12.80;99.90;;;;;;5052621;28;20115;-72
2022/06/07 02:33:46;;;;;;;12.38;10.32;;;12.70;99.90;;;;;;5052138;28;20775;-72
2022/06/07 02:36:12;;;;;;;11.95;10.50;;;12.70;99.90;;;;;;5052169;28;20497;-72
2022/06/07 02:38:38;;;;;;;16.15;10.38;;;12.70;99.90;;;;;;5052066;28;20068;-72
2022/06/07 02:41:07;;;;;;;14.43;11.48;;;12.70;99.90;;;;;;5052484;28;20456;-72
2022/06/07 02:43:33;;;;;;;15.85;10.10;;;12.70;99.90;;;;;;5052166;28;20055;-72
2022/06/07 02:45:58;;;;;;;15.20;11.18;;;12.70;99.90;;;;;;5035754;28;20036;-72
2022/06/07 02:48:24;;;;;;;13.57;10.73;;;12.70;99.90;;;;;;5052039;28;20397;-72
2022/06/07 02:50:52;;;;;;;12.82;11.07;;;12.70;99.90;;;;;;5070359;28;20056;-72
2022/06/07 02:53:18;;;;;;;13.40;11.18;;;12.70;99.90;;;;;;5052018;28;20120;-72
2022/06/07 02:55:44;;;;;;;12.20;10.98;;;12.70;99.90;;;;;;5053251;28;20091;-72
2022/06/07 02:58:10;;;;;;;14.48;12.52;;;12.60;99.90;;;;;;5053107;28;20368;-72
2022/06/07 03:00:35;;;;;;;16.10;12.45;;;12.60;99.90;;;;;;5053074;28;20066;-72
2022/06/07 03:03:01;;;;;;;14.65;11.45;;;12.70;99.90;;;;;;5053270;28;20037;-72
2022/06/07 03:05:27;;;;;;;14.35;11.63;;;12.70;99.90;;;;;;5052763;28;20041;-72
2022/06/07 03:07:53;;;;;;;15.60;12.40;;;12.70;99.90;;;;;;5052800;28;20510;-72
2022/06/07 03:10:19;;;;;;;16.05;12.85;;;12.70;99.90;;;;;;5036034;28;20037;-72
2022/06/07 03:12:45;;;;;;;14.52;12.48;;;12.70;99.90;;;;;;5052679;28;20040;-72
2022/06/07 03:15:12;;;;;;;19.48;13.15;;;12.70;99.90;;;;;;5052530;28;20443;-72
2022/06/07 03:17:38;;;;;;;17.65;12.98;;;12.80;99.90;;;;;;5052538;28;20091;-72
2022/06/07 03:20:06;;;;;;;16.75;13.68;;;12.80;99.90;;;;;;5052807;28;20438;-72
2022/06/07 03:22:32;;;;;;;18.92;14.13;;;12.70;99.90;;;;;;5052828;28;20037;-72
2022/06/07 03:25:01;;;;;;;15.85;12.88;;;12.80;99.90;;;;;;5035657;28;20072;-72
2022/06/07 03:27:27;;;;;;;16.55;12.63;;;12.80;99.90;;;;;;5052655;28;20074;-72
2022/06/07 03:29:53;;;;;;;16.08;13.68;;;12.80;99.90;;;;;;5052241;28;20041;-72
2022/06/07 03:32:18;;;;;;;16.55;14.43;;;12.80;99.90;;;;;;5035723;28;20614;-72
2022/06/07 03:34:44;;;;;;;15.73;11.93;;;12.80;99.90;;;;;;5052326;28;20036;-72
2022/06/07 03:37:09;;;;;;;19.15;14.07;;;12.80;99.90;;;;;;5052152;28;20033;-72
2022/06/07 03:39:35;;;;;;;17.15;12.75;;;12.80;99.90;;;;;;5051623;28;20052;-72
2022/06/07 03:42:01;;;;;;;16.05;12.57;;;12.80;99.90;;;;;;5052072;28;20037;-71
2022/06/07 03:44:27;;;;;;;17.55;13.00;;;12.80;99.90;;;;;;5051655;28;20043;-71
2022/06/07 03:46:53;;;;;;;13.55;12.00;;;12.80;99.90;;;;;;5052113;28;20480;-71
2022/06/07 03:49:18;;;;;;;15.55;12.88;;;12.80;99.90;;;;;;5052082;28;20076;-72
2022/06/07 03:51:47;;;;;;;18.40;14.00;;;12.80;99.90;;;;;;5052096;28;20057;-72
2022/06/07 03:54:13;;;;;;;15.45;13.27;;;12.80;99.90;;;;;;5051776;28;20499;-73
2022/06/07 03:56:38;;;;;;;16.75;13.43;;;12.80;99.90;;;;;;5051821;28;20060;-73
2022/06/07 03:59:04;;;;;;;15.35;12.57;;;12.80;99.90;;;;;;5051708;28;20450;-72
2022/06/07 04:01:30;;;;;;;14.80;12.25;;;12.80;99.90;;;;;;5051935;28;20041;-72
2022/06/07 04:04:01;;;;;;;14.38;12.25;;;12.90;99.90;;;;;;5051310;28;20064;-73
2022/06/07 04:06:37;;;;;;;16.83;13.02;;;12.90;99.90;;;;;;5051916;28;20402;-73
2022/06/07 04:09:03;;;;;;;14.75;13.15;;;12.90;99.90;;;;;;5051671;28;20128;-73
2022/06/07 04:11:29;;;;;;;15.50;12.63;;;12.90;99.90;;;;;;5051473;28;20140;-72
2022/06/07 04:13:56;;;;;;;18.63;13.88;;;12.90;99.90;;;;;;5035050;28;20394;-72
2022/06/07 04:16:25;;;;;;;15.43;12.68;;;12.80;99.90;;;;;;5051455;28;20033;-72
2022/06/07 04:18:51;;;;;;;16.08;13.20;;;12.90;99.90;;;;;;5051133;28;20083;-72
2022/06/07 04:21:17;;;;;;;16.60;12.90;;;12.80;99.90;;;;;;5051027;28;20069;-72
2022/06/07 04:23:44;;;;;;;15.88;13.45;;;12.90;99.90;;;;;;5034965;28;20036;-73
2022/06/07 04:26:16;;;;;;;15.45;13.57;;;12.90;99.90;;;;;;5051295;28;20098;-72
2022/06/07 04:28:41;;;;;;;;;;;12.90;99.90;;;;;;5051987;28;20091;-73
2022/06/07 04:31:12;;;;;;;15.23;13.63;;;12.90;99.90;;;;;;5050944;28;19917;-73
2022/06/07 04:33:38;;;;;;;15.02;13.40;;;12.90;99.90;;;;;;5050895;28;20040;-73
2022/06/07 04:36:10;;;;;;;16.60;13.15;;;12.90;99.90;;;;;;5050799;28;20164;-73
2022/06/07 04:38:36;;;;;;;16.27;12.57;;;12.90;99.90;;;;;;5050862;28;20076;-73
2022/06/07 04:41:08;;;;;;;15.82;13.77;;;12.90;99.90;;;;;;5051011;28;20068;-72
2022/06/07 04:43:33;;;;;;;20.30;13.85;;;12.90;99.90;;;;;;5051344;28;20087;-72
2022/06/07 04:46:07;;;;;;;19.27;13.90;;;12.90;99.90;;;;;;5050802;28;20045;-72
2022/06/07 04:48:34;;;;;;;20.45;14.77;;;12.90;99.90;;;;;;5050921;28;20090;-71
2022/06/07 04:51:11;;;;;;;18.25;14.48;;;12.90;99.90;;;;;;5034189;28;20053;-72
2022/06/07 04:53:38;;;;;;;17.95;14.23;;;12.80;99.90;;;;;;5050842;28;20065;-72
2022/06/07 04:56:08;;;;;;;18.95;15.10;;;12.80;99.90;;;;;;5050733;28;20063;-72
2022/06/07 04:58:34;;;;;;;19.92;15.25;;;12.80;99.90;;;;;;5034048;28;20407;-72
2022/06/07 05:00:59;;;;;;;17.90;15.25;;;12.80;99.90;;;;;;5034104;28;20044;-72
2022/06/07 05:03:25;;;;;;;14.07;12.23;;;12.80;99.90;;;;;;5050616;28;20037;-71
2022/06/07 05:05:50;;;;;;;18.58;15.18;;;12.80;99.90;;;;;;5050840;28;20459;-72
2022/06/07 05:08:17;;;;;;;19.92;15.13;;;12.80;99.90;;;;;;5050727;28;20570;-72
2022/06/07 05:10:42;;;;;;;16.92;15.23;;;12.80;99.90;;;;;;5050471;28;20049;-72
2022/06/07 05:13:08;;;;;;;18.42;15.63;;;12.80;99.90;;;;;;5050665;28;20105;-72
2022/06/07 05:15:34;;;;;;;20.35;15.13;;;12.80;99.90;;;;;;5050425;28;20470;-73
2022/06/07 05:18:00;;;;;;;18.63;14.25;;;12.80;99.90;;;;;;5050363;28;20616;-72
2022/06/07 05:20:25;;;;;;;16.90;14.27;;;12.80;99.90;;;;;;5050543;28;20067;-72
2022/06/07 05:22:51;;;;;;;16.30;14.05;;;12.90;99.90;;;;;;5050177;28;20045;-72
2022/06/07 05:25:19;;;;;;;16.73;14.98;;;12.80;99.90;;;;;;5050098;28;20545;-72
2022/06/07 05:27:49;;;;;;;18.33;15.45;;;12.80;99.90;;;;;;5033478;28;20045;-72
2022/06/07 05:30:15;;;;;;;19.45;16.17;;;12.80;99.90;;;;;;5050334;28;20048;-72
2022/06/07 05:32:41;;;;;;;19.05;15.43;;;12.80;99.90;;;;;;5049962;28;20044;-72
2022/06/07 05:35:08;;;;;;;18.88;15.55;;;12.80;99.90;;;;;;5050301;28;20098;-72
2022/06/07 05:37:34;;;;;;;17.05;15.30;;;12.70;99.90;;;;;;5050325;28;20396;-71
2022/06/07 05:40:04;;;;;;;16.40;14.27;;;12.70;99.90;;;;;;5049872;28;20048;-71
2022/06/07 05:42:29;;;;;;;18.02;14.02;;;12.70;99.90;;;;;;5033121;28;20090;-71
2022/06/07 05:44:57;;;;;;;13.80;11.02;;;12.70;99.90;;;;;;5049837;28;20377;-71
2022/06/07 05:47:23;;;;;;;14.27;12.23;;;12.70;99.90;;;;;;5049724;28;20049;-71
2022/06/07 05:49:48;;;;;;;11.18;9.68;;;12.70;99.90;;;;;;5049915;28;20105;-72
2022/06/07 05:52:14;;;;;;;11.02;9.55;;;12.70;99.90;;;;;;5049578;28;20483;-72
2022/06/07 05:54:40;;;;;;;11.55;9.00;;;12.60;99.90;;;;;;5049631;28;20376;-72
2022/06/07 05:57:07;;;;;;;8.93;6.47;;;12.60;99.90;;;;;;5049517;28;20045;-71
2022/06/07 05:59:33;;;;;;;11.13;6.68;;;12.70;99.90;;;;;;5049535;28;20051;-72
2022/06/07 06:01:58;;;;;;;7.60;6.95;;;12.60;99.90;;;;;;5049482;28;20036;-72
2022/06/07 06:04:27;;;;;;;7.10;5.75;;;12.60;99.90;;;;;;5032780;28;20037;-71
2022/06/07 06:06:57;;;;;;;6.32;5.72;;;12.60;99.90;;;;;;5049627;28;20044;-72
2022/06/07 06:12:08;;;;;;;6.53;4.82;;;12.60;99.90;;;;;;5049564;28;20399;-72
2022/06/07 06:14:33;;;;;;;5.32;4.60;;;12.60;99.90;;;;;;5033368;28;20044;-73
2022/06/07 06:16:59;;;;;;;6.88;4.35;;;12.60;99.90;;;;;;5049526;28;20037;-73
2022/06/07 06:19:25;;;;;;;7.35;4.70;;;12.60;99.90;;;;;;5049305;28;20056;-72
2022/06/07 06:21:50;;;;;;;5.65;4.50;;;12.40;99.90;;;;;;5049112;28;20037;-73
2022/06/07 06:24:17;;;;;;;11.23;4.90;;;12.40;99.90;;;;;;5049299;28;20048;-71
2022/06/07 06:26:43;;;;;;;6.00;4.68;;;12.40;99.90;;;;;;5048732;28;20049;-71
2022/06/07 06:29:10;;;;;;;6.72;5.13;;;12.40;99.90;;;;;;5049123;28;20053;-72
2022/06/07 06:31:38;;;;;;;5.43;4.90;;;12.40;99.90;;;;;;5049519;28;20041;-72
2022/06/07 06:34:03;;;;;;;6.80;4.75;;;12.40;99.90;;;;;;5048958;28;20075;-72
2022/06/07 06:36:30;;;;;;;6.18;5.25;;;12.40;99.90;;;;;;5049280;28;20049;-71
2022/06/07 06:38:56;;;;;;;8.70;5.63;;;12.40;99.90;;;;;;5048853;28;20037;-71
2022/06/07 06:41:25;;;;;;;10.07;5.70;;;12.50;99.90;;;;;;5048949;28;20040;-72
2022/06/07 06:43:52;;;;;;;9.45;5.70;;;12.50;99.90;;;;;;5048868;28;20037;-72
2022/06/07 06:46:30;;;;;;;10.10;6.15;;;12.50;99.90;;;;;;5048846;28;20098;-72
2022/06/07 06:48:55;;;;;;;9.40;6.25;;;12.60;99.90;;;;;;5048916;28;20045;-72
2022/06/07 06:51:24;;;;;;;7.50;5.45;;;12.60;99.90;;;;;;5048893;28;20398;-72
2022/06/07 06:53:49;;;;;;;9.70;6.45;;;12.70;99.90;;;;;;5048503;28;20057;-72
2022/06/07 06:56:20;;;;;;;10.35;6.20;;;12.70;99.90;;;;;;5048725;28;20074;-72
2022/06/07 06:58:46;;;;;;;9.35;5.75;;;12.80;99.90;;;;;;5049001;28;20114;-72
2022/06/07 07:01:18;;;;;;;12.85;6.45;;;12.80;99.90;;;;;;5048718;28;20140;-72
2022/06/07 07:03:44;;;;;;;9.93;5.90;;;12.80;99.90;;;;;;5048744;28;20091;-72
2022/06/07 07:06:12;;;;;;;8.63;5.47;;;12.90;99.90;;;;;;5048877;28;20507;-72
2022/06/07 07:08:40;;;;;;;9.90;5.85;;;12.90;99.90;;;;;;5032021;28;20098;-72
2022/06/07 07:11:09;;;;;;;7.07;5.68;;;12.90;99.90;;;;;;5049186;28;20075;-72
2022/06/07 07:13:36;;;;;;;9.50;6.00;;;13.00;99.90;;;;;;5049883;28;20048;-72
2022/06/07 07:16:04;;;;;;;9.65;5.78;;;13.00;99.90;;;;;;5048725;28;20506;-72
2022/06/07 07:18:30;;;;;;;9.65;6.60;;;12.90;99.90;;;;;;5048613;28;20052;-72
2022/06/07 07:20:56;;;;;;;9.93;5.88;;;13.00;99.90;;;;;;5049173;28;20037;-72
2022/06/07 07:23:24;;;;;;;10.65;5.78;;;13.00;99.90;;;;;;5048573;28;20040;-72
2022/06/07 07:25:50;;;;;;;11.00;6.57;;;13.00;99.90;;;;;;5048928;28;20412;-72
2022/06/07 07:28:16;;;;;;;10.38;6.43;;;12.90;99.90;;;;;;5049086;28;20110;-72
2022/06/07 07:30:42;;;;;;;9.23;7.10;;;12.80;99.90;;;;;;5048519;28;20033;-72
2022/06/07 07:33:07;;;;;;;10.65;6.00;;;12.80;99.90;;;;;;5048270;28;20052;-72
2022/06/07 07:35:34;;;;;;;8.85;4.90;;;12.80;99.90;;;;;;5048534;28;20530;-72
2022/06/07 07:38:01;;;;;;;9.38;4.20;;;12.80;99.90;;;;;;5048238;28;20085;-72
2022/06/07 07:40:26;;;;;;;7.97;4.18;;;12.80;99.90;;;;;;5051722;28;20041;-72
2022/06/07 07:42:52;;;;;;;7.05;3.10;;;12.90;99.90;;;;;;5052547;28;20047;-72
2022/06/07 07:45:18;;;;;;;7.07;2.55;;;12.90;99.90;;;;;;5051945;28;20506;-72
2022/06/07 07:47:44;;;;;;;5.95;2.90;;;12.90;99.90;;;;;;5052060;28;20033;-72
2022/06/07 07:50:11;;;;;;;4.38;2.90;;;12.80;99.90;;;;;;5052027;28;20049;-70
2022/06/07 07:52:38;;;;;;;5.30;2.65;;;12.80;99.90;;;;;;5052334;28;20059;-71
2022/06/07 07:55:04;;;;;;;5.72;2.60;;;12.80;99.90;;;;;;5035223;28;20064;-72
2022/06/07 07:57:31;;;;;;;4.72;3.00;;;12.80;99.90;;;;;;5052011;28;20369;-73
2022/06/07 07:59:57;;;;;;;5.78;3.30;;;12.80;99.90;;;;;;5051942;28;20059;-73
2022/06/07 08:02:22;;;;;;;5.15;3.42;;;12.80;99.90;;;;;;5051826;28;20041;-73
2022/06/07 08:04:48;;;;;;;5.00;3.70;;;12.80;99.90;;;;;;5052191;28;20048;-72
2022/06/07 08:07:13;;;;;;;9.93;5.07;;;12.80;99.90;;;;;;5051947;28;20044;-72
2022/06/07 08:09:39;;;;;;;8.60;4.43;;;12.80;99.90;;;;;;5076017;22;20505;-72
2022/06/07 08:12:06;;;;;;;8.45;4.70;;;12.90;99.90;;;;;;5071703;28;20355;-72
2022/06/07 08:14:34;;;;;;;8.50;4.90;;;12.80;99.90;;;;;;5071630;28;20037;-71
2022/06/07 08:17:00;;;;;;;8.98;4.70;;;12.80;99.90;;;;;;5071947;28;20033;-72
2022/06/07 08:19:26;;;;;;;8.80;4.65;;;12.80;99.90;;;;;;5071388;28;20041;-71
2022/06/07 08:21:52;;;;;;;7.57;4.32;;;13.00;99.90;;;;;;5071849;28;20079;-71
2022/06/07 08:24:18;;;;;;;8.02;4.30;;;13.00;99.90;;;;;;5071638;28;20068;-71
2022/06/07 08:26:46;;;;;;;7.45;5.20;;;12.90;99.90;;;;;;5054714;28;20040;-71
2022/06/07 08:29:12;;;;;;;7.47;4.75;;;13.00;99.90;;;;;;5071472;28;20036;-71
2022/06/07 08:31:39;;;;;;;7.47;4.38;;;13.00;99.90;;;;;;5071425;28;20098;-72
2022/06/07 08:39:36;;;;;;;6.47;4.68;;;13.10;99.90;;;;;;5071126;28;20044;-71
2022/06/07 08:42:29;;;;;;;6.47;4.53;;;13.20;99.90;;;;;;5071274;28;20051;-72
2022/06/07 08:45:14;;;;;;;11.90;4.72;;;13.40;99.90;;;;;;5054450;28;20128;-72
2022/06/07 08:47:53;;;;;;;6.75;4.03;;;13.30;99.90;;;;;;5070984;28;20048;-72
2022/06/07 08:50:21;;;;;;;6.53;3.80;;;13.30;99.90;;;;;;5071026;28;20474;-72
2022/06/07 08:52:51;;;;;;;7.15;4.68;;;13.40;99.90;;;;;;5070879;28;20044;-72
2022/06/07 08:55:27;;;;;;;7.07;4.20;;;13.50;99.90;;;;;;5070781;28;20482;-72
2022/06/07 08:58:05;;;;;;;5.63;3.38;;;13.60;99.90;;;;;;5054475;28;20044;-72
2022/06/07 09:00:33;;;;;;;5.72;3.47;;;13.70;99.90;;;;;;5070795;28;20127;-71
2022/06/07 09:03:17;;;;;;;5.38;3.58;;;13.80;99.90;;;;;;5070776;28;20127;-71
2022/06/07 09:05:43;;;;;;;6.45;3.50;;;13.90;99.90;;;;;;5070575;28;20037;-72
2022/06/07 09:08:12;;;;;;;4.50;3.38;;;14.00;99.90;;;;;;5070660;28;20401;-71
2022/06/07 09:13:25;;;;;;;4.20;2.42;;;14.20;99.90;;;;;;5070665;28;20135;-72
2022/06/07 09:15:54;;;;;;;4.20;2.03;;;14.10;99.90;;;;;;5070432;28;20060;-72
2022/06/07 09:18:25;;;;;;;4.38;1.85;;;14.10;99.90;;;;;;5070384;28;20543;-72
2022/06/07 09:20:54;;;;;;;5.03;2.00;;;14.30;99.90;;;;;;5070157;28;20051;-72
2022/06/07 09:23:28;;;;;;;4.45;2.45;;;14.20;99.90;;;;;;5053511;28;20049;-72
2022/06/07 09:25:57;;;;;;;6.70;2.38;;;14.30;99.90;;;;;;5053565;28;20181;-72
2022/06/07 09:28:28;;;;;;;4.45;2.38;;;14.30;99.90;;;;;;5070198;28;20066;-72
2022/06/07 09:31:00;;;;;;;3.53;2.05;;;14.30;99.90;;;;;;5053302;28;20051;-72
2022/06/07 09:33:27;;;;;;;4.88;2.40;;;14.30;99.90;;;;;;5070146;28;20169;-72
2022/06/07 09:35:59;;;;;;;6.75;2.53;;;14.40;99.90;;;;;;5069781;28;20037;-72
2022/06/07 09:38:36;;;;;;;4.00;2.00;;;14.40;99.90;;;;;;5070240;28;20473;-72
2022/06/07 09:41:37;;;;;;;5.60;2.10;;;14.50;99.90;;;;;;5069750;28;20123;-72
2022/06/07 09:44:21;;;;;;;3.95;1.95;;;14.50;99.90;;;;;;5053045;28;20036;-72
2022/06/07 09:47:11;;;;;;;3.75;2.28;;;14.60;99.90;;;;;;5069630;28;20166;-72
2022/06/07 09:49:51;;;;;;;5.78;2.75;;;14.60;99.90;;;;;;5063597;28;20506;-72
2022/06/07 09:52:24;;;;;;;3.60;1.80;;;14.50;99.90;;;;;;5052841;28;20040;-72
2022/06/07 09:54:59;;;;;;;5.20;1.67;;;14.50;99.90;;;;;;5069808;28;20049;-72
2022/06/07 09:57:35;;;;;;;5.35;1.80;;;14.60;99.90;;;;;;5069670;28;20036;-72
2022/06/07 10:00:21;;;;;;;4.13;1.40;;;14.70;99.90;;;;;;5069453;28;20044;-72
2022/06/07 10:03:20;;;;;;;2.97;1.52;;;14.70;99.90;;;;;;5068839;28;20052;-72
2022/06/07 10:05:57;;;;;;;3.80;1.38;;;14.90;99.90;;;;;;5069487;28;20049;-72
2022/06/07 10:08:34;;;;;;;3.55;1.10;;;15.10;99.90;;;;;;5069306;28;20080;-72
2022/06/07 10:11:19;;;;;;;4.35;1.65;;;15.20;99.90;;;;;;5069254;28;20067;-72
2022/06/07 10:13:55;;;;;;;4.80;1.30;;;15.20;99.90;;;;;;5052369;28;20055;-72
2022/06/07 10:16:40;;;;;;;4.03;1.40;;;15.20;99.90;;;;;;5069334;28;20048;-72
2022/06/07 10:19:17;;;;;;;6.88;1.75;;;15.30;99.90;;;;;;5069452;28;20098;-73
2022/06/07 10:22:45;;;;;;;3.28;1.30;;;15.40;99.90;;;;;;5069479;28;20090;-73
2022/06/07 10:25:26;;;;;;;4.72;1.42;;;15.50;99.90;;;;;;5045379;28;20143;-70
2022/06/07 10:28:19;;;;;;;4.93;1.50;;;15.60;99.90;;;;;;5069002;28;20049;-70
2022/06/07 10:30:52;;;;;;;7.40;1.40;;;15.60;99.90;;;;;;5069080;28;20072;-70
2022/06/07 10:33:21;;;;;;;5.47;1.95;;;15.50;99.90;;;;;;5069581;28;20052;-71
2022/06/07 10:35:58;;;;;;;7.13;1.55;;;15.50;99.90;;;;;;5069664;28;20154;-71
2022/06/07 10:38:32;;;;;;;6.80;1.75;;;15.60;99.90;;;;;;5052839;28;20891;-71
2022/06/07 10:41:34;;;;;;;4.88;1.60;;;15.50;99.90;;;;;;5052282;28;20493;-72
2022/06/07 10:44:38;;;;;;;6.25;1.60;;;15.50;99.90;;;;;;5052845;28;20559;-71
2022/06/07 10:47:46;;;;;;;4.85;1.60;;;15.60;99.90;;;;;;5065113;28;20086;-71
2022/06/07 10:50:30;;;;;;;6.85;1.75;;;15.60;99.90;;;;;;5077302;28;20044;-71
2022/06/07 10:53:07;;;;;;;3.38;1.13;;;15.70;99.90;;;;;;5069053;28;20051;-71
2022/06/07 10:55:35;;;;;;;4.28;1.58;;;15.80;99.90;;;;;;5069067;28;20118;-71
2022/06/07 10:58:24;;;;;;;5.28;1.58;;;15.80;99.90;;;;;;5068784;28;20478;-72
2022/06/07 11:01:05;;;;;;;3.67;1.50;;;16.00;99.90;;;;;;5069318;28;20529;-72
2022/06/07 11:03:42;;;;;;;2.92;1.20;;;16.10;99.90;;;;;;5068671;28;20094;-72
2022/06/07 11:09:38;;;;;;;3.80;1.45;;;16.30;99.90;;;;;;5068950;28;20418;-70
2022/06/07 11:12:09;;;;;;;3.90;1.00;;;16.50;99.90;;;;;;5068695;28;20502;-71
2022/06/07 11:14:54;;;;;;;5.00;1.55;;;16.60;99.90;;;;;;5072739;28;20040;-71
2022/06/07 11:17:38;;;;;;;2.75;1.45;;;16.70;99.90;;;;;;5055980;28;20056;-72
2022/06/07 11:20:15;;;;;;;4.90;1.90;;;16.80;99.90;;;;;;5072896;28;20123;-72
2022/06/07 11:22:54;;;;;;;7.00;1.95;;;16.80;99.90;;;;;;5072638;28;20044;-71
2022/06/07 11:25:35;;;;;;;7.53;1.90;;;16.90;99.90;;;;;;5073052;28;20049;-71
2022/06/07 11:28:14;;;;;;;5.30;1.63;;;16.90;99.90;;;;;;5055854;28;20044;-71
2022/06/07 11:30:39;;;;;;;6.78;1.60;;;16.90;99.90;;;;;;5072847;28;20036;-71
2022/06/07 11:33:31;;;;;;;6.20;1.70;;;17.00;99.90;;;;;;5072529;28;20510;-71
2022/06/07 11:36:12;;;;;;;6.18;1.98;;;17.10;99.90;;;;;;5072755;28;20044;-71
2022/06/07 11:39:00;;;;;;;5.63;1.83;;;17.10;99.90;;;;;;5072214;28;20051;-71
2022/06/07 11:41:37;;;;;;;4.22;1.75;;;17.00;99.90;;;;;;5072768;28;20047;-71
2022/06/07 11:44:04;;;;;;;8.25;2.00;;;17.10;99.90;;;;;;5056158;28;20032;-71
2022/06/07 11:46:32;;;;;;;5.18;1.63;;;17.00;99.90;;;;;;5072492;28;20094;-71
2022/06/07 11:49:19;;;;;;;6.30;1.40;;;16.90;99.90;;;;;;5072299;28;20165;-71
2022/06/07 11:51:58;;;;;;;3.00;1.20;;;16.90;99.90;;;;;;5073035;28;20500;-72
2022/06/07 11:54:43;;;;;;;4.68;1.45;;;17.00;99.90;;;;;;5072748;28;20051;-72
2022/06/07 11:57:32;;;;;;;5.90;1.90;;;16.90;99.90;;;;;;5055605;28;20040;-71
2022/06/07 12:00:19;;;;;;;3.65;1.65;;;17.00;99.90;;;;;;5055387;28;20048;-71
2022/06/07 12:02:56;;;;;;;5.53;1.58;;;17.10;99.90;;;;;;5072138;28;20048;-72
2022/06/07 12:05:41;;;;;;;5.47;1.80;;;17.10;99.90;;;;;;5071929;28;20032;-72
2022/06/07 12:08:39;;;;;;;4.65;1.73;;;17.20;99.90;;;;;;5071748;28;20060;-72
2022/06/07 12:11:20;;;;;;;4.30;2.13;;;17.30;99.90;;;;;;5072634;28;20488;-72
2022/06/07 12:14:07;;;;;;;7.43;1.80;;;17.40;99.90;;;;;;5055276;28;20075;-71
2022/06/07 12:16:39;;;;;;;6.88;1.70;;;17.60;99.90;;;;;;5067921;28;20084;-71
2022/06/07 12:19:25;;;;;;;9.05;2.33;;;17.50;99.90;;;;;;5073074;28;20478;-73
2022/06/07 12:21:53;;;;;;;6.57;2.10;;;17.70;99.90;;;;;;5088409;28;20051;-72
2022/06/07 12:24:19;;;;;;;6.30;1.70;;;17.80;99.90;;;;;;5071471;28;20500;-72
2022/06/07 12:26:47;;;;;;;4.88;1.50;;;17.70;99.90;;;;;;5071761;28;20120;-73
2022/06/07 12:29:20;;;;;;;5.20;2.38;;;17.80;99.90;;;;;;5071347;28;20036;-73
2022/06/07 12:31:49;;;;;;;5.03;1.83;;;17.60;99.90;;;;;;5071724;28;20389;-72
2022/06/07 12:34:23;;;;;;;4.50;1.90;;;17.70;99.90;;;;;;5071800;28;20427;-72
2022/06/07 12:37:21;;;;;;;5.93;1.48;;;17.80;99.90;;;;;;5071306;28;20076;-72
2022/06/07 12:39:57;;;;;;;6.68;2.08;;;17.80;99.90;;;;;;5071126;28;20135;-71
2022/06/07 12:42:27;;;;;;;6.43;1.85;;;17.80;99.90;;;;;;5071730;28;20024;-72
2022/06/07 12:44:59;;;;;;;5.70;1.85;;;17.70;99.90;;;;;;5071413;28;20115;-73
2022/06/07 12:47:31;;;;;;;7.88;2.08;;;17.80;99.90;;;;;;5071702;28;20051;-72
2022/06/07 12:49:57;;;;;;;5.75;1.60;;;17.80;99.90;;;;;;5054678;28;20044;-72
2022/06/07 12:52:28;;;;;;;4.22;1.60;;;17.90;99.90;;;;;;5070985;28;20041;-72
2022/06/07 12:55:11;;;;;;;7.05;2.20;;;17.90;99.90;;;;;;5071042;28;20048;-73
2022/06/07 12:57:46;;;;;;;7.20;2.05;;;17.90;99.90;;;;;;5072082;28;20124;-71
2022/06/07 13:00:38;;;;;;;5.90;2.10;;;18.00;99.90;;;;;;5070956;28;20086;-72
2022/06/07 13:03:06;;;;;;;;;;;17.90;99.90;;;;;;5070869;28;20036;-72
2022/06/07 13:05:37;;;;;;;4.95;1.77;;;17.90;99.90;;;;;;5071872;28;19978;-72
2022/06/07 13:08:13;;;;;;;4.23;1.60;;;18.10;99.90;;;;;;5070393;28;20056;-72
2022/06/07 13:10:39;;;;;;;3.88;1.70;;;18.20;99.90;;;;;;5070439;28;20087;-72
2022/06/07 13:13:12;;;;;;;4.82;1.70;;;18.00;99.90;;;;;;5070403;28;20500;-72
2022/06/07 13:15:58;;;;;;;5.78;1.70;;;18.00;99.90;;;;;;5070614;28;20054;-72
2022/06/07 13:18:56;;;;;;;6.22;2.00;;;18.20;99.90;;;;;;5053433;28;20040;-72